Monday, September 24, 2018, 5:25 PM EDT
Back to Local

KIDI, Indiana / Stewart Field

Location: Indiana, PA, United States Lat: 40.633
Local Time: 5:25 PM EDT (21:25 GMT) Lon: -79.1
Time Zone: US/Eastern Elev: 1407 ft

Show me the last for .
Show Decoded

2018-09-24 17:15 METAR KIDI 242115Z AUTO 13007KT 2SM BR FEW011 SCT017 BKN022 16/16 A3032 RMK A01
                 =
2018-09-24 16:55 METAR KIDI 242055Z AUTO 11005KT 2SM BR SCT015 BKN020 BKN025 16/16 A3032 RMK A01
                 =
2018-09-24 16:35 METAR KIDI 242035Z AUTO 11006KT 1 1/4SM BR SCT011 BKN018 OVC030 16/16 A3032 RMK
                 A01 =
2018-09-24 16:15 METAR KIDI 242015Z AUTO 12007KT 060V130 1 3/4SM BR FEW011 BKN018 OVC024 17/16
                 A3033 RMK A01 =
2018-09-24 15:55 METAR KIDI 241955Z AUTO 13008G16KT 3/4SM BR OVC019 17/15 A3033 RMK A01 =
2018-09-24 15:35 METAR KIDI 241935Z AUTO VRB06G11KT 10SM OVC018 18/15 A3034 RMK A01 =
2018-09-24 15:15 METAR KIDI 241915Z AUTO 16007KT 130V190 10SM OVC018 18/15 A3034 RMK A01 =
2018-09-24 14:55 METAR KIDI 241855Z AUTO 12006G12KT 10SM OVC018 18/15 A3034 RMK A01 =
2018-09-24 14:35 METAR KIDI 241835Z AUTO 14010KT 10SM OVC018 18/15 A3034 RMK A01 =
2018-09-24 14:15 METAR KIDI 241815Z AUTO 14008KT 10SM OVC018 18/15 A3034 RMK A01 =
2018-09-24 13:55 METAR KIDI 241755Z AUTO 15010G17KT 110V170 10SM OVC019 18/15 A3034 RMK A01 =
2018-09-24 13:35 METAR KIDI 241735Z AUTO 13011KT 10SM OVC019 18/15 A3035 RMK A01 =
2018-09-24 13:15 METAR KIDI 241715Z AUTO 13014KT 10SM OVC018 18/15 A3035 RMK A01 =
2018-09-24 12:55 METAR KIDI 241655Z AUTO 13014KT 10SM OVC018 18/15 A3035 RMK A01 =
2018-09-24 12:35 METAR KIDI 241635Z AUTO VRB06G19KT 10SM OVC018 18/15 A3036 RMK A01 =
2018-09-24 12:15 METAR KIDI 241615Z AUTO 15010G16KT 120V190 10SM OVC019 18/15 A3036 RMK A01 =
2018-09-24 11:55 METAR KIDI 241555Z AUTO 15009G17KT 10SM OVC019 18/15 A3036 RMK A01 =
2018-09-24 11:35 METAR KIDI 241535Z AUTO 13009G20KT 10SM OVC018 18/15 A3036 RMK A01 =
2018-09-24 11:15 METAR KIDI 241515Z AUTO 12009KT 080V150 10SM OVC018 18/15 A3036 RMK A01 =
2018-09-24 10:55 METAR KIDI 241455Z AUTO 13013KT 10SM OVC017 18/15 A3036 RMK A01 =
2018-09-24 10:35 METAR KIDI 241435Z AUTO 13014G21KT 10SM OVC017 17/15 A3036 RMK A01 =
2018-09-24 10:15 METAR KIDI 241415Z AUTO 14007G15KT 100V170 10SM OVC016 17/15 A3036 RMK A01 =
2018-09-24 09:55 METAR KIDI 241355Z AUTO 13009KT 10SM OVC016 17/14 A3036 RMK A01 =
2018-09-24 09:35 METAR KIDI 241335Z AUTO 11006G12KT 10SM OVC016 17/14 A3035 RMK A01 =
2018-09-24 09:15 METAR KIDI 241315Z AUTO 11008KT 10SM OVC016 16/14 A3035 RMK A01 =
2018-09-24 08:55 METAR KIDI 241255Z AUTO 11008KT 10SM OVC016 16/14 A3035 RMK A01 =
2018-09-24 08:35 METAR KIDI 241235Z AUTO 11008G15KT 10SM OVC017 16/14 A3034 RMK A01 =
2018-09-24 08:15 METAR KIDI 241215Z AUTO 11008G15KT 10SM OVC017 16/14 A3034 RMK A01 =
2018-09-24 07:55 METAR KIDI 241155Z AUTO 11009KT 10SM OVC014 15/14 A3033 RMK A01 =
2018-09-24 07:35 METAR KIDI 241135Z AUTO 12009KT 10SM OVC013 15/14 A3033 RMK A01 =
2018-09-24 07:15 METAR KIDI 241115Z AUTO 11007G14KT 10SM OVC014 15/14 A3032 RMK A01 =
2018-09-24 06:55 METAR KIDI 241055Z AUTO 10009KT 10SM OVC013 16/14 A3032 RMK A01 =
2018-09-24 06:35 METAR KIDI 241035Z AUTO 12005KT 10SM OVC013 15/14 A3031 RMK A01 =
2018-09-24 06:15 METAR KIDI 241015Z AUTO 11005G11KT 10SM OVC013 15/14 A3031 RMK A01 =
2018-09-24 05:55 METAR KIDI 240955Z AUTO 11007KT 10SM OVC013 15/14 A3030 RMK A01 =
2018-09-24 05:35 METAR KIDI 240935Z AUTO 10006KT 10SM OVC014 15/14 A3030 RMK A01 =
2018-09-24 05:15 METAR KIDI 240915Z AUTO 11006KT 10SM BKN014 15/14 A3029 RMK A01 =
2018-09-24 04:55 METAR KIDI 240855Z AUTO 11006KT 10SM OVC014 15/14 A3029 RMK A01 =
2018-09-24 04:35 METAR KIDI 240835Z AUTO 12007KT 090V150 10SM BKN014 OVC060 15/14 A3029 RMK A01 =
2018-09-24 04:15 METAR KIDI 240815Z AUTO 10007KT 10SM BKN014 OVC060 15/14 A3028 RMK A01 =
2018-09-24 03:55 METAR KIDI 240755Z AUTO 10005G11KT 10SM OVC014 15/14 A3029 RMK A01 =
2018-09-24 03:35 METAR KIDI 240735Z AUTO 11006G12KT 10SM BKN014 OVC060 16/14 A3029 RMK A01 =
2018-09-24 03:15 METAR KIDI 240715Z AUTO 11007KT 10SM BKN014 OVC060 16/14 A3028 RMK A01 =
2018-09-24 02:55 METAR KIDI 240655Z AUTO 11007KT 10SM OVC013 16/14 A3028 RMK A01 =
2018-09-24 02:35 METAR KIDI 240635Z AUTO 10008KT 10SM SCT014 OVC060 15/14 A3028 RMK A01 =
2018-09-24 02:15 METAR KIDI 240615Z AUTO 11006G11KT 10SM FEW012 OVC060 15/14 A3028 RMK A01 =
2018-09-24 01:55 METAR KIDI 240555Z AUTO 12007KT 10SM FEW013 SCT050 OVC060 15/14 A3029 RMK A01 =
2018-09-24 01:35 METAR KIDI 240535Z AUTO 11008KT 10SM FEW013 SCT047 OVC060 15/14 A3029 RMK A01 =
2018-09-24 01:15 METAR KIDI 240515Z AUTO 12008KT 090V150 10SM BKN014 OVC049 15/14 A3029 RMK A01 =
2018-09-24 00:55 METAR KIDI 240455Z AUTO 11006KT 10SM OVC015 16/14 A3029 RMK A01 =
2018-09-24 00:35 METAR KIDI 240435Z AUTO 11007KT 10SM OVC015 15/14 A3029 RMK A01 =
2018-09-24 00:15 METAR KIDI 240415Z AUTO 11006KT 10SM OVC014 15/14 A3030 RMK A01 =
2018-09-23 23:55 METAR KIDI 240355Z AUTO 11006KT 10SM BKN014 OVC044 15/13 A3029 RMK A01 =
2018-09-23 23:35 METAR KIDI 240335Z AUTO 10005KT 10SM SCT014 OVC044 15/13 A3029 RMK A01 =
2018-09-23 23:15 METAR KIDI 240315Z AUTO 11006KT 10SM BKN014 OVC043 15/13 A3028 RMK A01 =
2018-09-23 22:55 METAR KIDI 240255Z AUTO 12005KT 10SM BKN015 BKN035 OVC042 15/13 A3028 RMK A01 =
2018-09-23 22:35 METAR KIDI 240235Z AUTO 11005KT 10SM FEW016 OVC042 15/13 A3027 RMK A01 =
2018-09-23 22:15 METAR KIDI 240215Z AUTO 11005KT 10SM OVC042 15/13 A3026 RMK A01 =
2018-09-23 21:55 METAR KIDI 240155Z AUTO 10006KT 10SM BKN035 OVC041 16/13 A3026 RMK A01 =
2018-09-23 21:35 METAR KIDI 240135Z AUTO 11006KT 10SM OVC034 16/13 A3026 RMK A01 =
2018-09-23 21:15 METAR KIDI 240115Z AUTO 12006KT 10SM OVC034 16/13 A3026 RMK A01 =
2018-09-23 20:55 METAR KIDI 240055Z AUTO 11006KT 10SM OVC031 16/13 A3026 RMK A01 =
2018-09-23 20:35 METAR KIDI 240035Z AUTO 10005KT 10SM OVC031 16/13 A3026 RMK A01 =
2018-09-23 20:15 METAR KIDI 240015Z AUTO 10006KT 10SM OVC033 16/13 A3025 RMK A01 =
2018-09-23 19:55 METAR KIDI 232355Z AUTO 10005KT 10SM OVC036 16/13 A3024 RMK A01 =
2018-09-23 19:35 METAR KIDI 232335Z AUTO 11006KT 10SM OVC035 16/13 A3024 RMK A01 =
2018-09-23 19:15 METAR KIDI 232315Z AUTO 11007KT 10SM BKN035 16/14 A3024 RMK A01 =
2018-09-23 18:55 METAR KIDI 232255Z AUTO 13005KT 10SM CLR 16/14 A3024 RMK A01 =
2018-09-23 18:35 METAR KIDI 232235Z AUTO 12007KT 10SM CLR 17/14 A3024 RMK A01 =
2018-09-23 18:15 METAR KIDI 232215Z AUTO 12006KT 10SM FEW032 17/14 A3024 RMK A01 =
2018-09-23 17:55 METAR KIDI 232155Z AUTO 11005KT 10SM SCT032 17/14 A3023 RMK A01 =
2018-09-23 17:35 METAR KIDI 232135Z AUTO 11006KT 10SM FEW034 17/13 A3023 RMK A01 =

Support USWX by starting your Amazon purchase here.